Negaunee, MI (49866)

1:04 PM EDT on August 21, 2014 (GMT -0400)
Marquette Township | Change Station
CLOSE
Current Station
Personal Weather Station
Location: Marquette, MI
Elevation: 1047 ft
Nearby Weather Stations

Elev 1047 ft 46.55 °N, 87.47 °W | Updated 9 seconds ago

Overcast
Overcast
65.1 °F
Feels Like 65.1 °F
N
3.1
Wind Variable Wind from ENE
Gusts 4.0 mph

Today
High -- | Low -- °F
--% Chance of Precip.
Yesterday
High -- | Low -- °F
Precip. -- in
6:56 AM 8:49 PM
Waning Crescent, 13% visible
Pressure 29.98 in
Visibility 10.0 miles
Clouds Overcast 2900 ft
Dew Point 61 °F
Humidity 86%
Rainfall 0.00 in
Snow Depth Not available.
UV 3 out of 12
Pollen 8.80 out of 12
Ozone Good
PM2.5 Good
Flu Activity Not available.
METAR KSAW 211650Z 13003KT 10SM OVC029 20/15 A2998

More Conditions Fewer Conditions

Pressure 29.98 in
Visibility 10.0 miles
Clouds Overcast 2900 ft
Dew Point 61 °F
Humidity 86%
Rainfall 0.00 in
Snow Depth Not available.
UV 3 out of 12
Pollen 8.80 out of 12
Ozone Good
PM2.5 Good
Flu Activity Not available.
METAR KSAW 211650Z 13003KT 10SM OVC029 20/15 A2998

More Conditions Fewer Conditions

10-Day Weather Forecast

Almanac

Astronomy

Aug. 21, 2014 Rise Set
Actual Time 6:56 AM EDT 8:49 PM EDT
Civil Twilight 6:24 AM EDT 9:21 PM EDT
Nautical Twilight 5:44 AM EDT 10:01 PM EDT
Astronomical Twilight 5:00 AM EDT 10:44 PM EDT
Moon 3:20 AM EDT 6:23 PM EDT
Length of Visible Light 14h 57m
Length of Day
13h 53m
Tomorrow will be 3m 4s shorter.
Waning Crescent, 13% of the Moon is Illuminated
Today
Waning Crescent
Aug 25
New
Sep 2
First Quarter
Sep 8
Full
Sep 15
Last Quarter

Today's Extremes

State Highs State Lows

Community

WunderPhotos

Upload Photos

1,745,965 photos uploaded!

Nearby

Air Quality

  Air Quality AQ Index Pollutant
Yesterday Good
PM2.5
Yesterday Good
OZONE
Current Good
PM2.5
Current Good
OZONE
Thursday Good
OZONE
Thursday Good
PM2.5

Snow Depth

Station Depth Elevation
No new snow has been reported.

Earthquake Activity

City Distance Mag. Time & Date
No recent earthquake activity has been reported nearby.
Minimum magnitude displayed is 2.5.

Coastal Water Temperatures

Place Temperature
No Stations Reporting

Nearby Weather Stations